createdAt,value
2023-01-26T00:01:17.663Z,101849.69
2023-01-26T00:03:47.037Z,101844.06
2023-01-26T00:06:17.756Z,101835.31
2023-01-26T00:08:47.038Z,101840.78
2023-01-26T00:11:16.266Z,101834.47
2023-01-26T00:13:44.301Z,101840.66
2023-01-26T00:16:15.227Z,101840.25
2023-01-26T00:18:43.958Z,101833.88
2023-01-26T00:21:15.187Z,101826.09
2023-01-26T00:23:43.305Z,101819.72
2023-01-26T00:26:14.850Z,101814.75
2023-01-26T00:28:42.758Z,101811.03
2023-01-26T00:31:14.985Z,101811.94
2023-01-26T00:33:43.642Z,101811.41
2023-01-26T00:36:12.155Z,101804.97
2023-01-26T00:38:39.895Z,101809.56
2023-01-26T00:41:08.178Z,101810.41
2023-01-26T00:43:35.775Z,101790.50
2023-01-26T00:46:03.515Z,101785.41
2023-01-26T00:48:32.429Z,101785.50
2023-01-26T00:51:00.125Z,101785.84
2023-01-26T00:53:29.850Z,101787.22
2023-01-26T00:55:58.069Z,101786.56
2023-01-26T00:58:25.721Z,101778.78
2023-01-26T01:00:55.072Z,101777.41
2023-01-26T01:03:23.000Z,101778.06
2023-01-26T01:05:52.792Z,101777.72
2023-01-26T01:08:20.385Z,101782.41
2023-01-26T01:10:49.610Z,101772.59
2023-01-26T01:13:21.520Z,101769.53
2023-01-26T01:15:49.164Z,101765.03
2023-01-26T01:18:16.778Z,101766.63
2023-01-26T01:20:46.841Z,101757.16
2023-01-26T01:23:16.040Z,101765.47
2023-01-26T01:25:43.695Z,101772.63
2023-01-26T01:28:11.303Z,101774.44
2023-01-26T01:30:39.121Z,101768.25
2023-01-26T01:33:06.821Z,101763.47
2023-01-26T01:35:35.793Z,101754.88
2023-01-26T01:38:03.974Z,101760.94
2023-01-26T01:40:32.935Z,101760.19
2023-01-26T01:43:01.005Z,101754.44
2023-01-26T01:45:42.271Z,101755.25
2023-01-26T01:48:17.504Z,101746.31
2023-01-26T01:50:45.489Z,101752.25
2023-01-26T01:53:18.557Z,101752.47
2023-01-26T01:55:47.780Z,101746.47
2023-01-26T01:58:16.195Z,101740.41
2023-01-26T02:00:43.840Z,101726.44
2023-01-26T02:03:15.610Z,101725.84
2023-01-26T02:05:50.370Z,101726.09
2023-01-26T02:08:20.303Z,101728.75
2023-01-26T02:10:51.669Z,101729.00
2023-01-26T02:13:19.920Z,101720.69
2023-01-26T02:15:47.687Z,101723.69
2023-01-26T02:18:16.283Z,101716.97
2023-01-26T02:20:47.550Z,101726.34
2023-01-26T02:23:26.136Z,101722.44
2023-01-26T02:26:04.695Z,101715.06
2023-01-26T02:28:32.786Z,101709.03
2023-01-26T02:31:01.584Z,101705.72
2023-01-26T02:33:31.950Z,101709.03
2023-01-26T02:36:00.450Z,101710.06
2023-01-26T02:38:37.742Z,101707.53
2023-01-26T02:41:11.136Z,101708.06
2023-01-26T02:43:37.854Z,101713.84
2023-01-26T02:46:06.126Z,101714.44
2023-01-26T02:48:51.922Z,101715.06
2023-01-26T02:51:19.615Z,101710.94
2023-01-26T02:53:47.241Z,101705.72
2023-01-26T02:56:15.303Z,101704.88
2023-01-26T02:58:42.875Z,101701.81
2023-01-26T03:01:10.504Z,101705.09
2023-01-26T03:03:45.459Z,101708.63
2023-01-26T03:06:15.183Z,101703.53
2023-01-26T03:08:42.869Z,101704.91
2023-01-26T03:11:10.749Z,101711.06
2023-01-26T03:13:40.827Z,101702.53
2023-01-26T03:16:10.159Z,101708.41
2023-01-26T03:19:10.103Z,101700.97
2023-01-26T03:21:55.341Z,101708.31
2023-01-26T03:24:40.340Z,101710.97
2023-01-26T03:27:28.828Z,101702.63
2023-01-26T03:29:58.691Z,101707.78
2023-01-26T03:32:26.536Z,101702.63
2023-01-26T03:34:54.166Z,101698.91
2023-01-26T03:37:22.728Z,101701.47
2023-01-26T03:40:08.832Z,101695.06
2023-01-26T03:42:55.099Z,101696.66
2023-01-26T03:45:41.582Z,101693.69
2023-01-26T03:48:28.937Z,101695.28
2023-01-26T03:51:14.648Z,101687.72
2023-01-26T03:54:00.855Z,101681.97
2023-01-26T03:56:32.520Z,101687.06
2023-01-26T03:59:08.312Z,101686.22
2023-01-26T04:01:39.605Z,101692.19
2023-01-26T04:04:26.085Z,101682.38
2023-01-26T04:07:12.044Z,101690.91
2023-01-26T04:09:40.453Z,101686.41
2023-01-26T04:12:10.234Z,101682.59
2023-01-26T04:14:55.369Z,101677.25
2023-01-26T04:17:41.929Z,101684.06
2023-01-26T04:20:28.402Z,101681.41
2023-01-26T04:22:56.013Z,101672.41
2023-01-26T04:25:23.836Z,101668.41
2023-01-26T04:27:51.894Z,101665.97
2023-01-26T04:30:20.007Z,101667.44
2023-01-26T04:32:49.013Z,101660.91
2023-01-26T04:35:17.039Z,101660.19
2023-01-26T04:37:47.782Z,101659.22
2023-01-26T04:40:15.601Z,101651.22
2023-01-26T04:42:43.241Z,101658.25
2023-01-26T04:45:11.581Z,101655.34
2023-01-26T04:47:39.394Z,101655.28
2023-01-26T04:50:10.611Z,101646.63
2023-01-26T04:52:38.410Z,101648.13
2023-01-26T04:55:06.625Z,101659.53
2023-01-26T04:57:34.259Z,101657.81
2023-01-26T05:00:01.831Z,101663.34
2023-01-26T05:02:29.626Z,101653.81
2023-01-26T05:04:57.351Z,101656.09
2023-01-26T05:07:26.325Z,101646.69
2023-01-26T05:09:55.617Z,101647.44
2023-01-26T05:12:35.556Z,101635.06
2023-01-26T05:15:03.150Z,101642.41
2023-01-26T05:17:30.754Z,101642.34
2023-01-26T05:19:58.382Z,101647.72
2023-01-26T05:22:28.911Z,101645.94
2023-01-26T05:24:56.510Z,101645.06
2023-01-26T05:27:24.256Z,101642.22
2023-01-26T05:29:53.294Z,101651.88
2023-01-26T05:32:22.125Z,101643.69
2023-01-26T05:34:49.713Z,101649.31
2023-01-26T05:37:17.318Z,101652.91
2023-01-26T05:39:46.388Z,101649.47
2023-01-26T05:42:15.115Z,101640.34
2023-01-26T05:44:45.092Z,101648.16
2023-01-26T05:47:12.941Z,101665.13
2023-01-26T05:49:42.788Z,101664.63
2023-01-26T05:52:11.469Z,101659.16
2023-01-26T05:54:40.332Z,101663.88
2023-01-26T05:57:09.910Z,101667.50
2023-01-26T05:59:37.575Z,101663.34
2023-01-26T06:02:06.021Z,101660.88
2023-01-26T06:04:33.695Z,101665.16
2023-01-26T06:07:01.455Z,101658.97
2023-01-26T06:09:29.030Z,101654.66
2023-01-26T06:11:57.486Z,101654.25
2023-01-26T06:14:26.478Z,101662.59
2023-01-26T06:16:54.798Z,101653.53
2023-01-26T06:19:22.430Z,101655.97
2023-01-26T06:21:50.123Z,101658.34
2023-01-26T06:24:17.821Z,101659.72
2023-01-26T06:26:45.491Z,101659.47
2023-01-26T06:29:13.338Z,101666.31
2023-01-26T06:31:42.579Z,101664.72
2023-01-26T06:34:11.245Z,101663.44
2023-01-26T06:36:39.620Z,101665.44
2023-01-26T06:39:07.993Z,101663.84
2023-01-26T06:41:35.663Z,101668.97
2023-01-26T06:44:03.567Z,101672.38
2023-01-26T06:46:31.262Z,101667.47
2023-01-26T06:49:02.720Z,101662.25
2023-01-26T06:51:47.136Z,101663.41
2023-01-26T06:54:15.628Z,101660.75
2023-01-26T06:56:43.462Z,101658.38
2023-01-26T06:59:13.146Z,101654.22
2023-01-26T07:01:44.080Z,101659.97
2023-01-26T07:04:14.460Z,101655.47
2023-01-26T07:06:42.350Z,101667.56
2023-01-26T07:09:10.506Z,101675.34
2023-01-26T07:11:39.648Z,101675.91
2023-01-26T07:14:07.344Z,101680.25
2023-01-26T07:16:35.212Z,101685.16
2023-01-26T07:19:02.876Z,101682.06
2023-01-26T07:21:31.813Z,101674.50
2023-01-26T07:23:59.553Z,101683.91
2023-01-26T07:26:27.258Z,101679.94
2023-01-26T07:28:55.460Z,101676.09
2023-01-26T07:31:23.293Z,101674.78
2023-01-26T07:33:51.756Z,101671.19
2023-01-26T07:36:19.683Z,101669.03
2023-01-26T07:38:48.669Z,101667.44
2023-01-26T07:41:16.445Z,101668.91
2023-01-26T07:43:44.100Z,101666.13
2023-01-26T07:46:12.208Z,101674.78
2023-01-26T07:48:41.705Z,101677.97
2023-01-26T07:51:10.994Z,101675.03
2023-01-26T07:53:39.509Z,101673.19
2023-01-26T07:56:10.759Z,101674.38
2023-01-26T07:58:38.596Z,101667.97
2023-01-26T08:01:11.248Z,101676.06
2023-01-26T08:03:39.571Z,101674.25
2023-01-26T08:06:11.761Z,101671.03
2023-01-26T08:08:41.795Z,101674.44
2023-01-26T08:11:11.741Z,101673.06
2023-01-26T08:13:39.958Z,101673.00
2023-01-26T08:16:12.036Z,101672.13
2023-01-26T08:18:40.448Z,101684.91
2023-01-26T08:21:08.471Z,101691.84
2023-01-26T08:23:36.378Z,101690.66
2023-01-26T08:26:05.009Z,101690.41
2023-01-26T08:28:34.086Z,101689.16
2023-01-26T08:31:06.394Z,101695.31
2023-01-26T08:33:34.838Z,101697.03
2023-01-26T08:36:03.096Z,101706.50
2023-01-26T08:38:31.516Z,101698.19
2023-01-26T08:40:59.365Z,101696.78
2023-01-26T08:43:27.299Z,101697.75
2023-01-26T08:45:56.797Z,101685.53
2023-01-26T08:48:24.756Z,101691.06
2023-01-26T08:50:55.831Z,101688.91
2023-01-26T08:53:23.514Z,101686.88
2023-01-26T08:55:51.411Z,101693.81
2023-01-26T08:58:20.369Z,101694.03
2023-01-26T09:00:49.124Z,101702.13
2023-01-26T09:03:18.137Z,101706.09
2023-01-26T09:05:45.826Z,101700.34
2023-01-26T09:08:13.488Z,101695.72
2023-01-26T09:10:41.286Z,101696.59
2023-01-26T09:13:08.921Z,101692.09
2023-01-26T09:15:38.849Z,101686.78
2023-01-26T09:18:06.947Z,101693.59
2023-01-26T09:20:35.968Z,101700.69
2023-01-26T09:23:04.066Z,101697.72
2023-01-26T09:25:31.731Z,101695.72
2023-01-26T09:27:59.398Z,101693.19
2023-01-26T09:30:27.188Z,101699.59
2023-01-26T09:32:59.827Z,101701.41
2023-01-26T09:35:27.575Z,101707.78
2023-01-26T09:37:56.542Z,101699.16
2023-01-26T09:40:29.500Z,101691.19
2023-01-26T09:43:13.549Z,101686.66
2023-01-26T09:45:48.389Z,101696.44
2023-01-26T09:48:33.107Z,101688.00
2023-01-26T09:51:05.697Z,101687.75
2023-01-26T09:53:46.676Z,101685.19
2023-01-26T09:56:20.068Z,101681.31
2023-01-26T09:58:53.467Z,101679.19
2023-01-26T10:01:28.862Z,101683.56
2023-01-26T10:04:04.023Z,101691.78
2023-01-26T10:06:33.150Z,101689.41
2023-01-26T10:09:15.579Z,101680.25
2023-01-26T10:11:46.358Z,101683.28
2023-01-26T10:14:21.666Z,101679.66
2023-01-26T10:16:52.410Z,101682.31
2023-01-26T10:19:32.171Z,101680.59
2023-01-26T10:22:06.007Z,101682.00
2023-01-26T10:24:34.984Z,101676.63
2023-01-26T10:27:02.620Z,101676.06
2023-01-26T10:29:30.955Z,101664.47
2023-01-26T10:31:58.593Z,101659.53
2023-01-26T10:34:28.559Z,101666.31
2023-01-26T10:37:02.883Z,101661.69
2023-01-26T10:39:31.938Z,101661.53
2023-01-26T10:42:03.177Z,101644.84
2023-01-26T10:44:36.239Z,101645.25
2023-01-26T10:47:07.376Z,101638.13
2023-01-26T10:49:35.315Z,101646.06
2023-01-26T10:52:09.263Z,101643.03
2023-01-26T10:54:37.102Z,101646.84
2023-01-26T10:57:15.465Z,101638.44
2023-01-26T10:59:48.979Z,101633.81
2023-01-26T11:02:27.219Z,101627.72
2023-01-26T11:05:20.718Z,101628.78
2023-01-26T11:07:50.608Z,101626.88
2023-01-26T11:10:24.279Z,101625.75
2023-01-26T11:13:07.887Z,101630.69
2023-01-26T11:15:39.610Z,101619.88
2023-01-26T11:18:17.169Z,101632.47
2023-01-26T11:20:51.265Z,101625.47
2023-01-26T11:23:30.494Z,101614.63
2023-01-26T11:26:16.789Z,101621.66
2023-01-26T11:28:59.829Z,101612.19
2023-01-26T11:31:39.128Z,101618.16
2023-01-26T11:34:17.055Z,101615.72
2023-01-26T11:36:52.225Z,101615.56
2023-01-26T11:39:29.646Z,101616.91
2023-01-26T11:42:10.980Z,101606.94
2023-01-26T11:44:58.957Z,101604.38
2023-01-26T11:47:40.789Z,101604.06
2023-01-26T11:50:24.278Z,101598.34
2023-01-26T11:53:06.263Z,101592.56
2023-01-26T11:55:54.160Z,101583.22
2023-01-26T11:58:32.327Z,101592.69
2023-01-26T12:01:04.117Z,101588.44
2023-01-26T12:03:36.861Z,101586.84
2023-01-26T12:06:09.038Z,101591.97
2023-01-26T12:08:42.638Z,101589.81
2023-01-26T12:11:25.057Z,101585.28
2023-01-26T12:14:17.368Z,101582.75
2023-01-26T12:17:15.685Z,101582.75
2023-01-26T12:19:53.892Z,101580.56
2023-01-26T12:22:27.102Z,101579.59
2023-01-26T12:27:54.120Z,101581.34
2023-01-26T12:30:35.586Z,101574.44
2023-01-26T12:33:05.057Z,101576.38
2023-01-26T12:35:45.027Z,101573.81
2023-01-26T12:38:25.147Z,101572.16
2023-01-26T12:41:06.843Z,101563.72
2023-01-26T12:43:49.712Z,101551.63
2023-01-26T12:46:18.479Z,101553.59
2023-01-26T12:48:51.158Z,101544.75
2023-01-26T12:51:24.130Z,101545.13
2023-01-26T12:53:58.919Z,101545.00
2023-01-26T12:56:31.235Z,101546.59
2023-01-26T12:59:02.309Z,101550.06
2023-01-26T13:01:39.981Z,101543.41
2023-01-26T13:04:12.318Z,101537.34
2023-01-26T13:06:40.082Z,101540.88
2023-01-26T13:09:22.953Z,101540.66
2023-01-26T13:11:53.979Z,101533.22
2023-01-26T13:14:39.275Z,101539.28
2023-01-26T13:17:54.706Z,101531.50
2023-01-26T13:20:48.641Z,101529.94
2023-01-26T13:23:53.111Z,101528.34
2023-01-26T13:26:25.433Z,101536.13
2023-01-26T13:28:55.341Z,101528.97
2023-01-26T13:31:35.351Z,101525.34
2023-01-26T13:34:08.868Z,101533.31
2023-01-26T13:36:43.215Z,101531.50
2023-01-26T13:39:17.490Z,101533.81
2023-01-26T13:41:47.333Z,101530.69
2023-01-26T13:44:19.422Z,101524.88
2023-01-26T13:46:52.984Z,101525.44
2023-01-26T13:49:26.109Z,101533.72
2023-01-26T13:51:55.367Z,101531.56
2023-01-26T13:54:25.969Z,101525.00
2023-01-26T13:57:05.141Z,101526.78
2023-01-26T13:59:34.336Z,101530.47
2023-01-26T14:02:02.434Z,101521.34
2023-01-26T14:04:31.723Z,101530.69
2023-01-26T14:07:05.451Z,101536.63
2023-01-26T14:09:36.041Z,101540.28
2023-01-26T14:12:06.223Z,101538.47
2023-01-26T14:14:35.852Z,101539.91
2023-01-26T14:17:09.089Z,101542.09
2023-01-26T14:19:41.091Z,101542.81
2023-01-26T14:22:15.678Z,101548.78
2023-01-26T14:24:44.095Z,101557.75
2023-01-26T14:27:30.292Z,101564.81
2023-01-26T14:29:58.950Z,101560.44
2023-01-26T14:32:29.758Z,101567.94
2023-01-26T14:34:59.693Z,101556.78
2023-01-26T14:37:29.890Z,101551.19
2023-01-26T14:40:21.481Z,101555.09
2023-01-26T14:42:51.128Z,101554.59
2023-01-26T14:45:23.474Z,101555.44
2023-01-26T14:47:53.676Z,101557.91
2023-01-26T14:50:27.422Z,101557.50
2023-01-26T14:52:57.183Z,101561.88
2023-01-26T14:55:29.033Z,101557.75
2023-01-26T14:57:57.608Z,101554.84
2023-01-26T15:00:28.799Z,101550.94
2023-01-26T15:02:58.829Z,101559.09
2023-01-26T15:05:34.628Z,101556.19
2023-01-26T15:08:05.142Z,101550.84
2023-01-26T15:10:36.561Z,101551.31
2023-01-26T15:13:08.368Z,101555.72
2023-01-26T15:15:38.394Z,101563.72
2023-01-26T15:18:19.759Z,101560.69
2023-01-26T15:21:00.134Z,101563.13
2023-01-26T15:23:31.818Z,101561.66
2023-01-26T15:26:07.643Z,101561.78
2023-01-26T15:28:36.738Z,101562.00
2023-01-26T15:31:05.011Z,101566.03
2023-01-26T15:33:40.909Z,101570.88
2023-01-26T15:36:32.503Z,101570.41
2023-01-26T15:39:04.982Z,101563.25
2023-01-26T15:41:32.685Z,101570.66
2023-01-26T15:44:00.358Z,101566.13
2023-01-26T15:46:28.626Z,101567.97
2023-01-26T15:48:56.539Z,101560.53
2023-01-26T15:51:24.290Z,101558.13
2023-01-26T15:53:51.990Z,101564.56
2023-01-26T15:56:21.033Z,101574.03
2023-01-26T15:58:49.086Z,101564.56
2023-01-26T16:01:21.653Z,101569.66
2023-01-26T16:03:49.865Z,101559.47
2023-01-26T16:06:23.468Z,101566.28
2023-01-26T16:08:51.739Z,101555.31
2023-01-26T16:11:21.523Z,101561.41
2023-01-26T16:14:02.373Z,101565.66
2023-01-26T16:16:31.624Z,101561.16
2023-01-26T16:18:59.591Z,101554.97
2023-01-26T16:21:30.204Z,101564.44
2023-01-26T16:23:58.542Z,101557.47
2023-01-26T16:26:28.699Z,101558.22
2023-01-26T16:28:56.651Z,101551.78
2023-01-26T16:31:26.948Z,101560.28
2023-01-26T16:33:54.756Z,101557.47
2023-01-26T16:36:22.650Z,101565.97
2023-01-26T16:38:50.591Z,101549.81
2023-01-26T16:41:24.473Z,101553.31
2023-01-26T16:43:55.480Z,101553.69
2023-01-26T16:46:23.365Z,101542.78
2023-01-26T16:48:51.358Z,101546.91
2023-01-26T16:51:21.529Z,101556.03
2023-01-26T16:53:49.919Z,101556.03
2023-01-26T16:56:19.819Z,101557.72
2023-01-26T16:58:50.066Z,101559.66
2023-01-26T17:01:22.113Z,101558.94
2023-01-26T17:03:51.025Z,101567.06
2023-01-26T17:06:20.208Z,101567.94
2023-01-26T17:08:48.303Z,101568.44
2023-01-26T17:11:18.258Z,101567.59
2023-01-26T17:13:47.542Z,101562.34
2023-01-26T17:16:16.844Z,101561.25
2023-01-26T17:18:46.370Z,101570.84
2023-01-26T17:21:14.842Z,101565.38
2023-01-26T17:23:44.405Z,101577.06
2023-01-26T17:26:13.243Z,101574.25
2023-01-26T17:28:40.942Z,101583.13
2023-01-26T17:31:10.709Z,101576.94
2023-01-26T17:33:39.236Z,101595.66
2023-01-26T17:36:09.825Z,101591.25
2023-01-26T17:38:37.570Z,101598.19
2023-01-26T17:41:06.087Z,101592.00
2023-01-26T17:43:33.981Z,101596.63
2023-01-26T17:46:03.974Z,101602.91
2023-01-26T17:48:31.763Z,101609.97
2023-01-26T17:50:59.673Z,101605.59
2023-01-26T17:53:28.840Z,101618.00
2023-01-26T17:55:56.633Z,101614.72
2023-01-26T17:58:24.457Z,101621.75
2023-01-26T18:00:52.847Z,101616.41
2023-01-26T18:03:26.100Z,101620.94
2023-01-26T18:05:55.229Z,101618.84
2023-01-26T18:08:23.051Z,101619.22
2023-01-26T18:10:58.495Z,101619.81
2023-01-26T18:13:26.609Z,101618.13
2023-01-26T18:15:54.901Z,101612.41
2023-01-26T18:18:23.889Z,101620.69
2023-01-26T18:20:51.720Z,101622.50
2023-01-26T18:23:20.488Z,101616.53
2023-01-26T18:25:48.891Z,101619.94
2023-01-26T18:28:18.110Z,101613.50
2023-01-26T18:30:45.946Z,101615.94
2023-01-26T18:33:16.074Z,101618.72
2023-01-26T18:35:44.049Z,101620.31
2023-01-26T18:38:11.805Z,101623.94
2023-01-26T18:40:41.755Z,101623.13
2023-01-26T18:43:09.643Z,101622.16
2023-01-26T18:45:42.550Z,101617.63
2023-01-26T18:48:10.299Z,101611.06
2023-01-26T18:50:38.833Z,101614.34
2023-01-26T18:53:08.296Z,101621.28
2023-01-26T18:55:35.964Z,101622.38
2023-01-26T18:58:03.594Z,101613.38
2023-01-26T19:00:31.501Z,101622.38
2023-01-26T19:03:00.748Z,101620.66
2023-01-26T19:05:31.320Z,101628.19
2023-01-26T19:08:09.868Z,101623.59
2023-01-26T19:10:38.831Z,101629.91
2023-01-26T19:13:06.763Z,101636.34
2023-01-26T19:15:34.677Z,101637.44
2023-01-26T19:18:04.099Z,101634.75
2023-01-26T19:20:32.121Z,101636.94
2023-01-26T19:23:01.626Z,101642.78
2023-01-26T19:25:29.390Z,101639.03
2023-01-26T19:27:57.013Z,101629.41
2023-01-26T19:30:24.921Z,101643.63
2023-01-26T19:33:12.883Z,101648.88
2023-01-26T19:35:42.024Z,101649.84
2023-01-26T19:38:10.946Z,101654.69
2023-01-26T19:40:38.643Z,101650.81
2023-01-26T19:43:06.810Z,101645.34
2023-01-26T19:45:34.969Z,101649.84
2023-01-26T19:48:03.014Z,101653.72
2023-01-26T19:50:30.864Z,101658.69
2023-01-26T19:53:00.340Z,101655.31
2023-01-26T19:55:28.034Z,101653.22
2023-01-26T19:57:55.900Z,101660.28
2023-01-26T20:00:24.055Z,101655.56
2023-01-26T20:02:51.744Z,101649.59
2023-01-26T20:05:19.466Z,101643.53
2023-01-26T20:07:47.751Z,101652.25
2023-01-26T20:10:17.883Z,101652.13
2023-01-26T20:12:47.008Z,101650.91
2023-01-26T20:15:16.610Z,101649.94
2023-01-26T20:17:44.421Z,101652.75
2023-01-26T20:20:15.317Z,101643.50
2023-01-26T20:22:43.687Z,101640.97
2023-01-26T20:25:12.298Z,101643.38
2023-01-26T20:27:42.759Z,101643.75
2023-01-26T20:30:12.046Z,101639.84
2023-01-26T20:32:40.207Z,101638.88
2023-01-26T20:35:09.559Z,101644.47
2023-01-26T20:37:37.367Z,101637.31
2023-01-26T20:40:06.558Z,101647.16
2023-01-26T20:42:34.692Z,101640.72
2023-01-26T20:45:03.697Z,101648.13
2023-01-26T20:47:34.132Z,101655.31
2023-01-26T20:50:02.084Z,101649.81
2023-01-26T20:52:30.417Z,101648.03
2023-01-26T20:54:58.433Z,101656.16
2023-01-26T20:57:26.211Z,101659.44
2023-01-26T20:59:53.801Z,101662.84
2023-01-26T21:02:23.993Z,101654.19
2023-01-26T21:04:54.120Z,101655.66
2023-01-26T21:07:22.069Z,101657.09
2023-01-26T21:09:49.991Z,101650.78
2023-01-26T21:12:17.814Z,101647.03
2023-01-26T21:14:45.894Z,101654.22
2023-01-26T21:17:13.566Z,101650.56
2023-01-26T21:19:42.539Z,101663.06
2023-01-26T21:22:14.001Z,101661.13
2023-01-26T21:24:41.679Z,101655.91
2023-01-26T21:27:09.461Z,101648.63
2023-01-26T21:29:40.263Z,101655.66
2023-01-26T21:32:08.444Z,101644.75
2023-01-26T21:34:36.174Z,101644.47
2023-01-26T21:37:06.344Z,101642.53
2023-01-26T21:39:33.974Z,101642.41
2023-01-26T21:42:01.740Z,101656.28
2023-01-26T21:44:30.523Z,101644.59
2023-01-26T21:47:00.167Z,101641.81
2023-01-26T21:49:29.232Z,101647.88
2023-01-26T21:52:15.196Z,101643.13
2023-01-26T21:54:44.196Z,101637.16
2023-01-26T21:57:26.328Z,101640.47
2023-01-26T21:59:54.458Z,101643.47
2023-01-26T22:02:22.875Z,101642.78
2023-01-26T22:04:52.143Z,101642.78
2023-01-26T22:07:20.684Z,101645.69
2023-01-26T22:09:49.707Z,101641.56
2023-01-26T22:12:17.506Z,101645.22
2023-01-26T22:14:45.204Z,101644.47
2023-01-26T22:17:12.897Z,101650.94
2023-01-26T22:19:40.500Z,101654.56
2023-01-26T22:22:08.144Z,101646.41
2023-01-26T22:24:36.239Z,101655.44
2023-01-26T22:27:06.556Z,101650.94
2023-01-26T22:29:34.132Z,101643.50
2023-01-26T22:32:02.587Z,101650.31
2023-01-26T22:34:30.583Z,101659.91
2023-01-26T22:36:58.203Z,101656.63
2023-01-26T22:39:25.826Z,101657.25
2023-01-26T22:41:53.734Z,101647.63
2023-01-26T22:44:22.660Z,101649.34
2023-01-26T22:46:50.362Z,101656.28
2023-01-26T22:49:18.455Z,101655.28
2023-01-26T22:51:46.049Z,101651.63
2023-01-26T22:54:13.782Z,101653.34
2023-01-26T22:56:41.526Z,101651.75
2023-01-26T22:59:09.188Z,101658.56
2023-01-26T23:01:38.186Z,101655.63
2023-01-26T23:04:07.229Z,101658.09
2023-01-26T23:06:34.940Z,101661.72
2023-01-26T23:09:04.567Z,101658.94
2023-01-26T23:11:33.536Z,101663.31
2023-01-26T23:14:01.257Z,101655.19
2023-01-26T23:16:29.334Z,101652.97
2023-01-26T23:18:59.637Z,101658.22
2023-01-26T23:21:28.306Z,101650.91
2023-01-26T23:23:56.166Z,101650.06
2023-01-26T23:26:23.896Z,101651.63
2023-01-26T23:28:51.563Z,101643.75
2023-01-26T23:31:19.949Z,101648.22
2023-01-26T23:33:48.349Z,101647.25
2023-01-26T23:36:17.310Z,101647.25
2023-01-26T23:38:45.592Z,101650.06
2023-01-26T23:41:14.081Z,101657.13
2023-01-26T23:43:41.670Z,101656.25
2023-01-26T23:46:10.389Z,101654.19
2023-01-26T23:48:38.570Z,101657.34
2023-01-26T23:51:09.313Z,101660.38
2023-01-26T23:53:38.886Z,101655.03
2023-01-26T23:56:09.541Z,101654.06
2023-01-26T23:58:37.931Z,101652.22
